sensor_id;sensor_type;location;lat;lon;timestamp;temperature;humidity
23143;DHT22;11740;51.168;4.112;2022-08-01T00:00:08;20.90;99.90
23143;DHT22;11740;51.168;4.112;2022-08-01T00:02:39;20.80;99.90
23143;DHT22;11740;51.168;4.112;2022-08-01T00:05:08;20.80;99.90
23143;DHT22;11740;51.168;4.112;2022-08-01T00:07:35;20.90;99.90
23143;DHT22;11740;51.168;4.112;2022-08-01T00:10:04;20.90;1.00
23143;DHT22;11740;51.168;4.112;2022-08-01T00:12:32;20.90;12.30
23143;DHT22;11740;51.168;4.112;2022-08-01T00:15:00;20.90;99.90
23143;DHT22;11740;51.168;4.112;2022-08-01T00:17:27;20.90;99.90
23143;DHT22;11740;51.168;4.112;2022-08-01T00:19:54;20.80;99.90
23143;DHT22;11740;51.168;4.112;2022-08-01T00:22:21;20.80;99.90
23143;DHT22;11740;51.168;4.112;2022-08-01T00:24:48;20.80;1.00
23143;DHT22;11740;51.168;4.112;2022-08-01T00:27:15;20.80;99.90
23143;DHT22;11740;51.168;4.112;2022-08-01T00:29:42;20.80;99.90
23143;DHT22;11740;51.168;4.112;2022-08-01T00:32:32;20.80;1.00
23143;DHT22;11740;51.168;4.112;2022-08-01T00:34:59;20.70;99.90
23143;DHT22;11740;51.168;4.112;2022-08-01T00:37:26;20.70;1.00
23143;DHT22;11740;51.168;4.112;2022-08-01T00:39:53;20.70;1.00
23143;DHT22;11740;51.168;4.112;2022-08-01T00:42:20;20.70;1.00
23143;DHT22;11740;51.168;4.112;2022-08-01T00:44:47;20.70;1.00
23143;DHT22;11740;51.168;4.112;2022-08-01T00:47:14;20.70;1.00
23143;DHT22;11740;51.168;4.112;2022-08-01T00:49:41;20.70;1.00
23143;DHT22;11740;51.168;4.112;2022-08-01T00:52:09;20.70;1.00
23143;DHT22;11740;51.168;4.112;2022-08-01T00:54:36;20.70;99.90
23143;DHT22;11740;51.168;4.112;2022-08-01T00:57:04;20.70;1.00
23143;DHT22;11740;51.168;4.112;2022-08-01T00:59:36;20.70;1.00
23143;DHT22;11740;51.168;4.112;2022-08-01T01:02:05;20.70;1.00
23143;DHT22;11740;51.168;4.112;2022-08-01T01:04:41;20.70;1.00
23143;DHT22;11740;51.168;4.112;2022-08-01T01:07:40;20.60;1.00
23143;DHT22;11740;51.168;4.112;2022-08-01T01:13:15;20.50;99.90
23143;DHT22;11740;51.168;4.112;2022-08-01T01:15:51;20.40;99.90
23143;DHT22;11740;51.168;4.112;2022-08-01T01:18:34;20.50;99.90
23143;DHT22;11740;51.168;4.112;2022-08-01T01:21:08;20.60;1.00
23143;DHT22;11740;51.168;4.112;2022-08-01T01:24:31;20.60;1.00
23143;DHT22;11740;51.168;4.112;2022-08-01T01:29:48;20.70;1.00
23143;DHT22;11740;51.168;4.112;2022-08-01T01:32:39;20.60;1.00
23143;DHT22;11740;51.168;4.112;2022-08-01T01:35:38;20.50;1.00
23143;DHT22;11740;51.168;4.112;2022-08-01T01:38:22;20.50;99.90
23143;DHT22;11740;51.168;4.112;2022-08-01T01:40:52;20.60;99.90
23143;DHT22;11740;51.168;4.112;2022-08-01T01:43:20;20.50;99.90
23143;DHT22;11740;51.168;4.112;2022-08-01T01:46:00;20.50;1.00
23143;DHT22;11740;51.168;4.112;2022-08-01T01:48:28;20.60;99.90
23143;DHT22;11740;51.168;4.112;2022-08-01T01:50:56;20.60;99.90
23143;DHT22;11740;51.168;4.112;2022-08-01T01:53:25;20.60;1.00
23143;DHT22;11740;51.168;4.112;2022-08-01T01:55:57;20.50;1.00
23143;DHT22;11740;51.168;4.112;2022-08-01T01:58:27;20.50;1.00
23143;DHT22;11740;51.168;4.112;2022-08-01T02:00:57;20.50;1.00
23143;DHT22;11740;51.168;4.112;2022-08-01T02:03:28;20.40;1.00
23143;DHT22;11740;51.168;4.112;2022-08-01T02:05:57;20.40;1.00
23143;DHT22;11740;51.168;4.112;2022-08-01T02:08:24;20.40;1.00
23143;DHT22;11740;51.168;4.112;2022-08-01T02:10:53;20.30;1.00
23143;DHT22;11740;51.168;4.112;2022-08-01T02:13:40;20.30;1.00
23143;DHT22;11740;51.168;4.112;2022-08-01T02:16:08;20.40;1.00
23143;DHT22;11740;51.168;4.112;2022-08-01T02:18:37;20.40;99.90
23143;DHT22;11740;51.168;4.112;2022-08-01T02:21:09;20.30;1.00
23143;DHT22;11740;51.168;4.112;2022-08-01T02:23:39;20.40;99.90
23143;DHT22;11740;51.168;4.112;2022-08-01T02:26:14;20.30;58.40
23143;DHT22;11740;51.168;4.112;2022-08-01T02:28:50;20.30;99.90
23143;DHT22;11740;51.168;4.112;2022-08-01T02:31:21;20.40;55.60
23143;DHT22;11740;51.168;4.112;2022-08-01T02:33:59;20.40;99.90
23143;DHT22;11740;51.168;4.112;2022-08-01T02:36:30;20.30;99.90
23143;DHT22;11740;51.168;4.112;2022-08-01T02:39:03;20.30;41.00
23143;DHT22;11740;51.168;4.112;2022-08-01T02:41:39;20.30;1.00
23143;DHT22;11740;51.168;4.112;2022-08-01T02:44:11;20.20;99.90
23143;DHT22;11740;51.168;4.112;2022-08-01T02:46:54;20.10;1.00
23143;DHT22;11740;51.168;4.112;2022-08-01T02:49:24;20.10;1.00
23143;DHT22;11740;51.168;4.112;2022-08-01T02:51:54;20.10;1.00
23143;DHT22;11740;51.168;4.112;2022-08-01T02:54:23;20.00;1.00
23143;DHT22;11740;51.168;4.112;2022-08-01T02:56:52;20.00;99.90
23143;DHT22;11740;51.168;4.112;2022-08-01T02:59:24;20.10;99.90
23143;DHT22;11740;51.168;4.112;2022-08-01T03:01:57;20.10;1.00
23143;DHT22;11740;51.168;4.112;2022-08-01T03:04:26;20.10;99.90
23143;DHT22;11740;51.168;4.112;2022-08-01T03:06:55;20.10;99.90
23143;DHT22;11740;51.168;4.112;2022-08-01T03:09:29;20.10;99.90
23143;DHT22;11740;51.168;4.112;2022-08-01T03:12:00;20.10;99.90
23143;DHT22;11740;51.168;4.112;2022-08-01T03:14:29;20.10;55.60
23143;DHT22;11740;51.168;4.112;2022-08-01T03:16:58;20.10;99.90
23143;DHT22;11740;51.168;4.112;2022-08-01T03:19:28;20.10;99.90
23143;DHT22;11740;51.168;4.112;2022-08-01T03:21:57;20.00;1.00
23143;DHT22;11740;51.168;4.112;2022-08-01T03:24:25;20.00;1.00
23143;DHT22;11740;51.168;4.112;2022-08-01T03:26:55;19.90;1.00
23143;DHT22;11740;51.168;4.112;2022-08-01T03:29:27;19.90;99.90
23143;DHT22;11740;51.168;4.112;2022-08-01T03:31:57;19.80;99.90
23143;DHT22;11740;51.168;4.112;2022-08-01T03:34:26;19.80;1.00
23143;DHT22;11740;51.168;4.112;2022-08-01T03:37:14;19.70;1.00
23143;DHT22;11740;51.168;4.112;2022-08-01T03:40:30;19.70;1.00
23143;DHT22;11740;51.168;4.112;2022-08-01T03:43:05;19.80;99.90
23143;DHT22;11740;51.168;4.112;2022-08-01T03:45:41;19.80;1.00
23143;DHT22;11740;51.168;4.112;2022-08-01T03:48:15;19.80;37.70
23143;DHT22;11740;51.168;4.112;2022-08-01T03:50:50;19.80;1.00
23143;DHT22;11740;51.168;4.112;2022-08-01T03:53:23;19.80;1.00
23143;DHT22;11740;51.168;4.112;2022-08-01T03:55:52;19.80;1.00
23143;DHT22;11740;51.168;4.112;2022-08-01T03:58:21;19.70;1.00
23143;DHT22;11740;51.168;4.112;2022-08-01T04:00:48;19.70;1.00
23143;DHT22;11740;51.168;4.112;2022-08-01T04:03:16;19.70;99.90
23143;DHT22;11740;51.168;4.112;2022-08-01T04:05:43;19.70;1.00
23143;DHT22;11740;51.168;4.112;2022-08-01T04:08:10;19.60;1.00
23143;DHT22;11740;51.168;4.112;2022-08-01T04:10:38;19.60;1.00
23143;DHT22;11740;51.168;4.112;2022-08-01T04:13:05;19.60;99.90
23143;DHT22;11740;51.168;4.112;2022-08-01T04:15:31;19.60;1.00
23143;DHT22;11740;51.168;4.112;2022-08-01T04:17:59;19.60;1.00
23143;DHT22;11740;51.168;4.112;2022-08-01T04:20:26;19.60;1.00
23143;DHT22;11740;51.168;4.112;2022-08-01T04:22:52;19.60;1.00
23143;DHT22;11740;51.168;4.112;2022-08-01T04:25:29;19.50;1.00
23143;DHT22;11740;51.168;4.112;2022-08-01T04:28:01;19.40;1.00
23143;DHT22;11740;51.168;4.112;2022-08-01T04:30:34;19.40;99.90
23143;DHT22;11740;51.168;4.112;2022-08-01T04:33:04;19.50;1.00
23143;DHT22;11740;51.168;4.112;2022-08-01T04:35:32;19.50;99.90
23143;DHT22;11740;51.168;4.112;2022-08-01T04:38:22;19.50;99.90
23143;DHT22;11740;51.168;4.112;2022-08-01T04:40:54;19.50;99.90
23143;DHT22;11740;51.168;4.112;2022-08-01T04:43:22;19.50;19.80
23143;DHT22;11740;51.168;4.112;2022-08-01T04:45:50;19.50;1.00
23143;DHT22;11740;51.168;4.112;2022-08-01T04:48:18;19.50;1.00
23143;DHT22;11740;51.168;4.112;2022-08-01T04:50:48;19.50;85.20
23143;DHT22;11740;51.168;4.112;2022-08-01T04:53:17;19.50;1.00
23143;DHT22;11740;51.168;4.112;2022-08-01T04:55:45;19.50;1.00
23143;DHT22;11740;51.168;4.112;2022-08-01T04:58:14;19.50;1.00
23143;DHT22;11740;51.168;4.112;2022-08-01T05:00:45;19.50;18.90
23143;DHT22;11740;51.168;4.112;2022-08-01T05:03:13;19.40;99.50
23143;DHT22;11740;51.168;4.112;2022-08-01T05:05:40;19.50;99.90
23143;DHT22;11740;51.168;4.112;2022-08-01T05:08:07;19.50;99.90
23143;DHT22;11740;51.168;4.112;2022-08-01T05:10:34;19.40;99.90
23143;DHT22;11740;51.168;4.112;2022-08-01T05:13:01;19.40;62.70
23143;DHT22;11740;51.168;4.112;2022-08-01T05:15:29;19.50;99.90
23143;DHT22;11740;51.168;4.112;2022-08-01T05:17:57;19.50;1.00
23143;DHT22;11740;51.168;4.112;2022-08-01T05:20:24;19.60;55.10
23143;DHT22;11740;51.168;4.112;2022-08-01T05:22:51;19.60;1.00
23143;DHT22;11740;51.168;4.112;2022-08-01T05:25:19;19.60;1.00
23143;DHT22;11740;51.168;4.112;2022-08-01T05:28:07;19.70;1.00
23143;DHT22;11740;51.168;4.112;2022-08-01T05:30:34;19.70;1.00
23143;DHT22;11740;51.168;4.112;2022-08-01T05:33:00;19.70;1.00
23143;DHT22;11740;51.168;4.112;2022-08-01T05:35:28;19.70;1.00
23143;DHT22;11740;51.168;4.112;2022-08-01T05:38:14;19.70;99.90
23143;DHT22;11740;51.168;4.112;2022-08-01T05:40:42;19.70;7.60
23143;DHT22;11740;51.168;4.112;2022-08-01T05:43:09;19.60;32.50
23143;DHT22;11740;51.168;4.112;2022-08-01T05:45:36;19.60;1.00
23143;DHT22;11740;51.168;4.112;2022-08-01T05:48:03;19.60;1.00
23143;DHT22;11740;51.168;4.112;2022-08-01T05:50:30;19.60;1.00
23143;DHT22;11740;51.168;4.112;2022-08-01T05:52:59;19.70;1.00
23143;DHT22;11740;51.168;4.112;2022-08-01T05:55:26;19.60;1.00
23143;DHT22;11740;51.168;4.112;2022-08-01T05:57:53;19.70;1.00
23143;DHT22;11740;51.168;4.112;2022-08-01T06:00:20;19.70;1.00
23143;DHT22;11740;51.168;4.112;2022-08-01T06:02:47;19.70;1.00
23143;DHT22;11740;51.168;4.112;2022-08-01T06:05:14;19.70;1.00
23143;DHT22;11740;51.168;4.112;2022-08-01T06:07:41;19.70;1.00
23143;DHT22;11740;51.168;4.112;2022-08-01T06:10:09;19.70;1.00
23143;DHT22;11740;51.168;4.112;2022-08-01T06:12:36;19.70;1.00
23143;DHT22;11740;51.168;4.112;2022-08-01T06:15:05;19.70;1.00
23143;DHT22;11740;51.168;4.112;2022-08-01T06:17:33;19.70;1.00
23143;DHT22;11740;51.168;4.112;2022-08-01T06:20:00;19.70;1.00
23143;DHT22;11740;51.168;4.112;2022-08-01T06:22:27;19.80;1.00
23143;DHT22;11740;51.168;4.112;2022-08-01T06:24:54;19.80;1.00
23143;DHT22;11740;51.168;4.112;2022-08-01T06:27:21;19.80;1.00
23143;DHT22;11740;51.168;4.112;2022-08-01T06:29:48;19.80;1.00
23143;DHT22;11740;51.168;4.112;2022-08-01T06:32:20;19.80;1.00
23143;DHT22;11740;51.168;4.112;2022-08-01T06:34:53;19.80;1.00
23143;DHT22;11740;51.168;4.112;2022-08-01T06:37:21;19.90;1.00
23143;DHT22;11740;51.168;4.112;2022-08-01T06:39:48;19.80;1.00
23143;DHT22;11740;51.168;4.112;2022-08-01T06:42:16;19.80;1.00
23143;DHT22;11740;51.168;4.112;2022-08-01T06:44:44;19.80;99.90
23143;DHT22;11740;51.168;4.112;2022-08-01T06:47:11;19.80;1.00
23143;DHT22;11740;51.168;4.112;2022-08-01T06:49:38;19.90;1.00
23143;DHT22;11740;51.168;4.112;2022-08-01T06:52:05;19.80;1.00
23143;DHT22;11740;51.168;4.112;2022-08-01T06:54:34;19.90;1.00
23143;DHT22;11740;51.168;4.112;2022-08-01T06:57:05;19.90;1.00
23143;DHT22;11740;51.168;4.112;2022-08-01T06:59:32;20.00;99.90
23143;DHT22;11740;51.168;4.112;2022-08-01T07:01:59;20.00;99.90
23143;DHT22;11740;51.168;4.112;2022-08-01T07:04:28;20.00;19.80
23143;DHT22;11740;51.168;4.112;2022-08-01T07:06:55;20.10;89.60
23143;DHT22;11740;51.168;4.112;2022-08-01T07:09:22;20.10;1.00
23143;DHT22;11740;51.168;4.112;2022-08-01T07:11:50;20.10;1.00
23143;DHT22;11740;51.168;4.112;2022-08-01T07:14:20;20.10;1.00
23143;DHT22;11740;51.168;4.112;2022-08-01T07:16:48;20.10;1.00
23143;DHT22;11740;51.168;4.112;2022-08-01T07:19:16;20.10;1.00
23143;DHT22;11740;51.168;4.112;2022-08-01T07:21:43;20.20;1.00
23143;DHT22;11740;51.168;4.112;2022-08-01T07:24:12;20.20;1.00
23143;DHT22;11740;51.168;4.112;2022-08-01T07:26:48;20.20;99.90
23143;DHT22;11740;51.168;4.112;2022-08-01T07:29:21;20.20;99.90
23143;DHT22;11740;51.168;4.112;2022-08-01T07:31:50;20.30;99.90
23143;DHT22;11740;51.168;4.112;2022-08-01T07:34:22;20.40;99.90
23143;DHT22;11740;51.168;4.112;2022-08-01T07:36:50;20.50;99.90
23143;DHT22;11740;51.168;4.112;2022-08-01T07:39:19;20.60;1.00
23143;DHT22;11740;51.168;4.112;2022-08-01T07:41:46;20.70;1.00
23143;DHT22;11740;51.168;4.112;2022-08-01T07:44:32;20.70;1.00
23143;DHT22;11740;51.168;4.112;2022-08-01T07:46:59;20.70;1.00
23143;DHT22;11740;51.168;4.112;2022-08-01T07:49:26;20.80;1.00
23143;DHT22;11740;51.168;4.112;2022-08-01T07:51:53;20.80;1.00
23143;DHT22;11740;51.168;4.112;2022-08-01T07:54:33;20.70;1.00
23143;DHT22;11740;51.168;4.112;2022-08-01T07:57:02;20.80;1.00
23143;DHT22;11740;51.168;4.112;2022-08-01T07:59:30;20.80;1.00
23143;DHT22;11740;51.168;4.112;2022-08-01T08:01:57;20.80;1.00
23143;DHT22;11740;51.168;4.112;2022-08-01T08:04:25;20.80;1.00
23143;DHT22;11740;51.168;4.112;2022-08-01T08:06:55;20.90;1.00
23143;DHT22;11740;51.168;4.112;2022-08-01T08:09:22;21.00;1.00
23143;DHT22;11740;51.168;4.112;2022-08-01T08:11:49;21.10;1.00
23143;DHT22;11740;51.168;4.112;2022-08-01T08:14:16;21.10;1.00
23143;DHT22;11740;51.168;4.112;2022-08-01T08:16:44;21.10;99.90
23143;DHT22;11740;51.168;4.112;2022-08-01T08:19:12;21.20;99.90
23143;DHT22;11740;51.168;4.112;2022-08-01T08:21:39;21.30;99.90
23143;DHT22;11740;51.168;4.112;2022-08-01T08:24:08;21.40;99.90
23143;DHT22;11740;51.168;4.112;2022-08-01T08:26:57;21.60;99.90
23143;DHT22;11740;51.168;4.112;2022-08-01T08:29:27;21.90;99.90
23143;DHT22;11740;51.168;4.112;2022-08-01T08:31:57;22.10;99.90
23143;DHT22;11740;51.168;4.112;2022-08-01T08:34:25;22.30;1.00
23143;DHT22;11740;51.168;4.112;2022-08-01T08:36:54;22.50;1.00
23143;DHT22;11740;51.168;4.112;2022-08-01T08:39:25;22.70;11.60
23143;DHT22;11740;51.168;4.112;2022-08-01T08:41:53;22.70;1.00
23143;DHT22;11740;51.168;4.112;2022-08-01T08:44:20;22.60;99.90
23143;DHT22;11740;51.168;4.112;2022-08-01T08:46:50;22.60;1.00
23143;DHT22;11740;51.168;4.112;2022-08-01T08:49:24;22.60;1.00
23143;DHT22;11740;51.168;4.112;2022-08-01T08:52:02;22.70;99.90
23143;DHT22;11740;51.168;4.112;2022-08-01T08:54:36;22.70;1.00
23143;DHT22;11740;51.168;4.112;2022-08-01T08:57:06;22.70;99.90
23143;DHT22;11740;51.168;4.112;2022-08-01T08:59:33;22.80;99.90
23143;DHT22;11740;51.168;4.112;2022-08-01T09:02:00;22.90;99.90
23143;DHT22;11740;51.168;4.112;2022-08-01T09:04:28;23.20;99.90
23143;DHT22;11740;51.168;4.112;2022-08-01T09:06:55;23.40;19.80
23143;DHT22;11740;51.168;4.112;2022-08-01T09:09:23;23.40;13.10
23143;DHT22;11740;51.168;4.112;2022-08-01T09:11:50;23.60;69.00
23143;DHT22;11740;51.168;4.112;2022-08-01T09:14:25;23.40;99.90
23143;DHT22;11740;51.168;4.112;2022-08-01T09:17:08;23.40;99.90
23143;DHT22;11740;51.168;4.112;2022-08-01T09:19:43;23.30;99.90
23143;DHT22;11740;51.168;4.112;2022-08-01T09:22:18;23.50;1.00
23143;DHT22;11740;51.168;4.112;2022-08-01T09:25:09;23.80;1.00
23143;DHT22;11740;51.168;4.112;2022-08-01T09:27:38;23.90;1.00
23143;DHT22;11740;51.168;4.112;2022-08-01T09:30:15;23.90;1.00
23143;DHT22;11740;51.168;4.112;2022-08-01T09:33:07;24.00;13.80
23143;DHT22;11740;51.168;4.112;2022-08-01T09:35:54;24.10;39.80
23143;DHT22;11740;51.168;4.112;2022-08-01T09:38:24;24.20;1.00
23143;DHT22;11740;51.168;4.112;2022-08-01T09:40:59;24.40;1.00
23143;DHT22;11740;51.168;4.112;2022-08-01T09:43:28;24.30;38.50
23143;DHT22;11740;51.168;4.112;2022-08-01T09:45:57;24.30;99.90
23143;DHT22;11740;51.168;4.112;2022-08-01T09:48:26;24.50;99.90
23143;DHT22;11740;51.168;4.112;2022-08-01T09:50:56;24.60;1.00
23143;DHT22;11740;51.168;4.112;2022-08-01T09:53:46;24.80;39.00
23143;DHT22;11740;51.168;4.112;2022-08-01T09:56:20;24.80;1.00
23143;DHT22;11740;51.168;4.112;2022-08-01T09:58:56;24.90;99.90
23143;DHT22;11740;51.168;4.112;2022-08-01T10:01:29;25.00;99.90
23143;DHT22;11740;51.168;4.112;2022-08-01T10:04:10;25.10;1.00
23143;DHT22;11740;51.168;4.112;2022-08-01T10:06:45;25.00;99.90
23143;DHT22;11740;51.168;4.112;2022-08-01T10:09:27;25.00;99.90
23143;DHT22;11740;51.168;4.112;2022-08-01T10:12:06;25.00;99.90
23143;DHT22;11740;51.168;4.112;2022-08-01T10:14:45;25.00;1.00
23143;DHT22;11740;51.168;4.112;2022-08-01T10:17:16;25.10;37.40
23143;DHT22;11740;51.168;4.112;2022-08-01T10:19:46;25.30;1.00
23143;DHT22;11740;51.168;4.112;2022-08-01T10:22:14;25.30;1.00
23143;DHT22;11740;51.168;4.112;2022-08-01T10:24:46;25.30;1.00
23143;DHT22;11740;51.168;4.112;2022-08-01T10:27:16;25.40;1.00
23143;DHT22;11740;51.168;4.112;2022-08-01T10:30:03;25.40;1.00
23143;DHT22;11740;51.168;4.112;2022-08-01T10:32:51;25.40;1.00
23143;DHT22;11740;51.168;4.112;2022-08-01T10:35:21;25.50;1.00
23143;DHT22;11740;51.168;4.112;2022-08-01T10:38:08;25.60;1.00
23143;DHT22;11740;51.168;4.112;2022-08-01T10:40:41;25.50;99.90
23143;DHT22;11740;51.168;4.112;2022-08-01T10:43:12;25.60;99.90
23143;DHT22;11740;51.168;4.112;2022-08-01T10:45:48;25.70;99.90
23143;DHT22;11740;51.168;4.112;2022-08-01T10:48:29;25.70;99.90
23143;DHT22;11740;51.168;4.112;2022-08-01T10:51:02;25.80;99.90
23143;DHT22;11740;51.168;4.112;2022-08-01T10:53:52;25.80;99.90
23143;DHT22;11740;51.168;4.112;2022-08-01T10:56:22;25.90;99.90
23143;DHT22;11740;51.168;4.112;2022-08-01T10:59:02;25.90;48.20
23143;DHT22;11740;51.168;4.112;2022-08-01T11:01:33;26.00;1.00
23143;DHT22;11740;51.168;4.112;2022-08-01T11:04:12;26.00;1.00
23143;DHT22;11740;51.168;4.112;2022-08-01T11:06:54;26.00;1.00
23143;DHT22;11740;51.168;4.112;2022-08-01T11:09:38;26.10;1.00
23143;DHT22;11740;51.168;4.112;2022-08-01T11:12:18;26.20;1.00
23143;DHT22;11740;51.168;4.112;2022-08-01T11:17:39;26.20;1.00
23143;DHT22;11740;51.168;4.112;2022-08-01T11:28:25;26.50;1.00
23143;DHT22;11740;51.168;4.112;2022-08-01T11:41:39;26.80;1.00
23143;DHT22;11740;51.168;4.112;2022-08-01T11:44:13;27.00;1.00
23143;DHT22;11740;51.168;4.112;2022-08-01T11:52:30;27.30;1.00
23143;DHT22;11740;51.168;4.112;2022-08-01T11:57:35;27.40;1.00
23143;DHT22;11740;51.168;4.112;2022-08-01T12:00:15;27.40;99.90
23143;DHT22;11740;51.168;4.112;2022-08-01T12:02:46;27.50;1.00
23143;DHT22;11740;51.168;4.112;2022-08-01T12:05:15;27.60;99.90
23143;DHT22;11740;51.168;4.112;2022-08-01T12:07:45;27.70;1.00
23143;DHT22;11740;51.168;4.112;2022-08-01T12:10:19;27.70;1.00
23143;DHT22;11740;51.168;4.112;2022-08-01T12:12:49;27.60;99.90
23143;DHT22;11740;51.168;4.112;2022-08-01T12:15:20;27.60;99.90
23143;DHT22;11740;51.168;4.112;2022-08-01T12:18:09;27.60;99.90
23143;DHT22;11740;51.168;4.112;2022-08-01T12:20:39;27.70;99.90
23143;DHT22;11740;51.168;4.112;2022-08-01T12:23:21;27.70;99.90
23143;DHT22;11740;51.168;4.112;2022-08-01T12:25:51;27.70;99.90
23143;DHT22;11740;51.168;4.112;2022-08-01T12:28:19;27.70;99.90
23143;DHT22;11740;51.168;4.112;2022-08-01T12:30:48;27.80;99.90
23143;DHT22;11740;51.168;4.112;2022-08-01T12:33:18;27.70;99.90
23143;DHT22;11740;51.168;4.112;2022-08-01T12:35:46;27.80;99.90
23143;DHT22;11740;51.168;4.112;2022-08-01T12:38:18;27.90;99.90
23143;DHT22;11740;51.168;4.112;2022-08-01T12:40:48;28.00;99.90
23143;DHT22;11740;51.168;4.112;2022-08-01T12:43:20;28.10;99.90
23143;DHT22;11740;51.168;4.112;2022-08-01T12:45:55;28.10;99.90
23143;DHT22;11740;51.168;4.112;2022-08-01T12:48:24;28.20;99.90
23143;DHT22;11740;51.168;4.112;2022-08-01T12:50:52;28.20;99.90
23143;DHT22;11740;51.168;4.112;2022-08-01T12:53:20;28.20;99.90
23143;DHT22;11740;51.168;4.112;2022-08-01T12:55:53;28.20;99.90
23143;DHT22;11740;51.168;4.112;2022-08-01T12:58:34;28.20;99.90
23143;DHT22;11740;51.168;4.112;2022-08-01T13:01:09;28.20;99.90
23143;DHT22;11740;51.168;4.112;2022-08-01T13:03:38;28.20;99.90
23143;DHT22;11740;51.168;4.112;2022-08-01T13:06:23;28.20;99.90
23143;DHT22;11740;51.168;4.112;2022-08-01T13:09:07;28.20;99.90
23143;DHT22;11740;51.168;4.112;2022-08-01T13:11:40;28.40;99.90
23143;DHT22;11740;51.168;4.112;2022-08-01T13:14:28;28.60;99.90
23143;DHT22;11740;51.168;4.112;2022-08-01T13:16:55;28.50;99.90
23143;DHT22;11740;51.168;4.112;2022-08-01T13:19:42;28.50;99.90
23143;DHT22;11740;51.168;4.112;2022-08-01T13:22:10;28.60;99.90
23143;DHT22;11740;51.168;4.112;2022-08-01T13:24:37;28.70;99.90
23143;DHT22;11740;51.168;4.112;2022-08-01T13:27:04;28.70;99.90
23143;DHT22;11740;51.168;4.112;2022-08-01T13:29:36;28.80;99.90
23143;DHT22;11740;51.168;4.112;2022-08-01T13:32:18;28.90;99.90
23143;DHT22;11740;51.168;4.112;2022-08-01T13:35:03;29.00;99.90
23143;DHT22;11740;51.168;4.112;2022-08-01T13:37:32;29.00;99.90
23143;DHT22;11740;51.168;4.112;2022-08-01T13:39:59;29.10;99.90
23143;DHT22;11740;51.168;4.112;2022-08-01T13:42:26;29.10;99.90
23143;DHT22;11740;51.168;4.112;2022-08-01T13:44:55;29.10;99.90
23143;DHT22;11740;51.168;4.112;2022-08-01T13:47:22;29.30;99.90
23143;DHT22;11740;51.168;4.112;2022-08-01T13:49:57;29.20;99.90
23143;DHT22;11740;51.168;4.112;2022-08-01T13:52:28;29.40;99.90
23143;DHT22;11740;51.168;4.112;2022-08-01T13:54:55;29.50;99.90
23143;DHT22;11740;51.168;4.112;2022-08-01T13:57:24;29.70;99.90
23143;DHT22;11740;51.168;4.112;2022-08-01T14:00:04;29.80;99.90
23143;DHT22;11740;51.168;4.112;2022-08-01T14:02:33;29.90;99.90
23143;DHT22;11740;51.168;4.112;2022-08-01T14:05:01;30.10;99.90
23143;DHT22;11740;51.168;4.112;2022-08-01T14:07:28;30.10;99.90
23143;DHT22;11740;51.168;4.112;2022-08-01T14:09:56;30.30;99.90
23143;DHT22;11740;51.168;4.112;2022-08-01T14:12:43;30.50;99.90
23143;DHT22;11740;51.168;4.112;2022-08-01T14:15:11;30.60;99.90
23143;DHT22;11740;51.168;4.112;2022-08-01T14:17:39;30.60;99.90
23143;DHT22;11740;51.168;4.112;2022-08-01T14:20:13;30.50;99.90
23143;DHT22;11740;51.168;4.112;2022-08-01T14:22:40;30.50;99.90
23143;DHT22;11740;51.168;4.112;2022-08-01T14:25:08;30.80;99.90
23143;DHT22;11740;51.168;4.112;2022-08-01T14:27:35;31.10;99.90
23143;DHT22;11740;51.168;4.112;2022-08-01T14:30:06;31.20;99.90
23143;DHT22;11740;51.168;4.112;2022-08-01T14:32:34;31.10;99.90
23143;DHT22;11740;51.168;4.112;2022-08-01T14:35:04;31.20;99.90
23143;DHT22;11740;51.168;4.112;2022-08-01T14:37:32;31.30;99.90
23143;DHT22;11740;51.168;4.112;2022-08-01T14:40:05;31.20;99.90
23143;DHT22;11740;51.168;4.112;2022-08-01T14:42:37;31.40;99.90
23143;DHT22;11740;51.168;4.112;2022-08-01T14:45:06;31.40;99.90
23143;DHT22;11740;51.168;4.112;2022-08-01T14:47:38;31.40;99.90
23143;DHT22;11740;51.168;4.112;2022-08-01T14:50:10;31.60;99.90
23143;DHT22;11740;51.168;4.112;2022-08-01T14:52:40;31.60;99.90
23143;DHT22;11740;51.168;4.112;2022-08-01T14:55:09;31.90;99.90
23143;DHT22;11740;51.168;4.112;2022-08-01T14:57:38;31.70;99.90
23143;DHT22;11740;51.168;4.112;2022-08-01T15:00:08;31.70;99.90
23143;DHT22;11740;51.168;4.112;2022-08-01T15:02:40;31.70;99.90
23143;DHT22;11740;51.168;4.112;2022-08-01T15:05:08;31.90;99.90
23143;DHT22;11740;51.168;4.112;2022-08-01T15:07:37;31.90;99.90
23143;DHT22;11740;51.168;4.112;2022-08-01T15:10:19;32.00;99.90
23143;DHT22;11740;51.168;4.112;2022-08-01T15:12:46;32.30;99.90
23143;DHT22;11740;51.168;4.112;2022-08-01T15:15:16;32.40;99.90
23143;DHT22;11740;51.168;4.112;2022-08-01T15:17:43;32.60;99.90
23143;DHT22;11740;51.168;4.112;2022-08-01T15:20:11;32.70;99.90
23143;DHT22;11740;51.168;4.112;2022-08-01T15:22:40;32.80;99.90
23143;DHT22;11740;51.168;4.112;2022-08-01T15:25:07;32.90;99.90
23143;DHT22;11740;51.168;4.112;2022-08-01T15:27:34;33.20;99.90
23143;DHT22;11740;51.168;4.112;2022-08-01T15:30:02;33.10;99.90
23143;DHT22;11740;51.168;4.112;2022-08-01T15:32:30;33.40;99.90
23143;DHT22;11740;51.168;4.112;2022-08-01T15:34:57;33.60;99.90
23143;DHT22;11740;51.168;4.112;2022-08-01T15:37:24;33.80;99.90
23143;DHT22;11740;51.168;4.112;2022-08-01T15:39:51;33.80;99.90
23143;DHT22;11740;51.168;4.112;2022-08-01T15:42:22;33.90;99.90
23143;DHT22;11740;51.168;4.112;2022-08-01T15:44:52;34.00;99.90
23143;DHT22;11740;51.168;4.112;2022-08-01T15:47:20;34.10;99.90
23143;DHT22;11740;51.168;4.112;2022-08-01T15:49:51;34.20;99.90
23143;DHT22;11740;51.168;4.112;2022-08-01T15:52:19;34.50;99.90
23143;DHT22;11740;51.168;4.112;2022-08-01T15:54:48;34.40;99.90
23143;DHT22;11740;51.168;4.112;2022-08-01T15:57:16;34.40;99.90
23143;DHT22;11740;51.168;4.112;2022-08-01T15:59:43;34.50;99.90
23143;DHT22;11740;51.168;4.112;2022-08-01T16:02:10;34.50;99.90
23143;DHT22;11740;51.168;4.112;2022-08-01T16:04:37;34.40;99.90
23143;DHT22;11740;51.168;4.112;2022-08-01T16:07:05;34.70;99.90
23143;DHT22;11740;51.168;4.112;2022-08-01T16:09:32;34.70;99.90
23143;DHT22;11740;51.168;4.112;2022-08-01T16:11:59;34.90;99.90
23143;DHT22;11740;51.168;4.112;2022-08-01T16:14:26;34.90;99.90
23143;DHT22;11740;51.168;4.112;2022-08-01T16:16:53;34.70;99.90
23143;DHT22;11740;51.168;4.112;2022-08-01T16:19:20;34.60;99.90
23143;DHT22;11740;51.168;4.112;2022-08-01T16:21:47;34.60;99.90
23143;DHT22;11740;51.168;4.112;2022-08-01T16:24:14;34.70;99.90
23143;DHT22;11740;51.168;4.112;2022-08-01T16:26:41;34.80;99.90
23143;DHT22;11740;51.168;4.112;2022-08-01T16:29:10;34.90;99.90
23143;DHT22;11740;51.168;4.112;2022-08-01T16:31:38;35.30;99.90
23143;DHT22;11740;51.168;4.112;2022-08-01T16:34:23;35.40;99.90
23143;DHT22;11740;51.168;4.112;2022-08-01T16:36:50;35.50;99.90
23143;DHT22;11740;51.168;4.112;2022-08-01T16:39:19;35.30;99.90